Time;durP1;ratioP1;P1;durP2;ratioP2;P2;SDS_P1;SDS_P2;PMS_P1;PMS_P2;Temp;Humidity;BMP_temperature;BMP_pressure;BME280_temperature;BME280_humidity;BME280_pressure;Samples;Min_cycle;Max_cycle;Signal;HPM_P1;HPM_P2
2021/10/18 00:00:19;;;;;;;22.00;10.88;;;;;;;;;;5050301;28;20025;-67
2021/10/18 00:02:45;;;;;;;19.70;10.32;;;;;;;;;;5051601;28;20041;-67
2021/10/18 00:05:12;;;;;;;21.50;10.73;;;;;;;;;;5051594;28;20075;-67
2021/10/18 00:07:38;;;;;;;20.50;10.52;;;;;;;;;;5050254;28;20484;-67
2021/10/18 00:10:05;;;;;;;23.55;11.00;;;;;;;;;;5050260;28;20106;-67
2021/10/18 00:12:31;;;;;;;20.70;9.40;;;;;;;;;;5049345;28;20043;-67
2021/10/18 00:14:58;;;;;;;25.38;11.88;;;;;;;;;;5050366;28;20261;-67
2021/10/18 00:17:24;;;;;;;24.88;11.55;;;;;;;;;;5053852;28;20518;-67
2021/10/18 00:19:50;;;;;;;22.20;10.57;;;;;;;;;;5050325;28;20108;-67
2021/10/18 00:22:16;;;;;;;22.60;11.02;;;;;;;;;;5050220;28;20025;-66
2021/10/18 00:24:42;;;;;;;19.60;9.55;;;;;;;;;;5049162;28;20052;-65
2021/10/18 00:27:08;;;;;;;19.83;9.65;;;;;;;;;;5050243;28;20052;-67
2021/10/18 00:29:34;;;;;;;22.30;10.68;;;;;;;;;;5052421;28;20107;-66
2021/10/18 00:32:00;;;;;;;18.92;10.27;;;;;;;;;;5051080;28;20087;-67
2021/10/18 00:34:26;;;;;;;17.88;9.75;;;;;;;;;;5049493;28;20480;-67
2021/10/18 00:36:52;;;;;;;21.25;9.68;;;;;;;;;;5049389;28;20025;-66
2021/10/18 00:39:18;;;;;;;18.67;9.32;;;;;;;;;;5049260;28;20495;-66
2021/10/18 00:41:44;;;;;;;19.30;8.32;;;;;;;;;;5051423;28;20021;-66
2021/10/18 00:44:10;;;;;;;17.15;8.38;;;;;;;;;;5051791;28;20468;-66
2021/10/18 00:46:36;;;;;;;17.08;9.00;;;;;;;;;;5049470;28;20029;-65
2021/10/18 00:49:02;;;;;;;18.65;9.50;;;;;;;;;;5048496;28;20036;-66
2021/10/18 00:51:29;;;;;;;21.33;9.93;;;;;;;;;;5048916;28;20024;-66
2021/10/18 00:53:56;;;;;;;18.05;9.00;;;;;;;;;;5048939;28;20041;-66
2021/10/18 00:56:22;;;;;;;18.58;8.88;;;;;;;;;;5053137;28;20095;-66
2021/10/18 00:58:49;;;;;;;19.15;9.27;;;;;;;;;;5049044;28;20033;-66
2021/10/18 01:01:15;;;;;;;19.77;9.98;;;;;;;;;;5049097;28;20029;-67
2021/10/18 01:03:41;;;;;;;18.00;8.85;;;;;;;;;;5049175;28;20393;-66
2021/10/18 01:06:08;;;;;;;16.77;9.27;;;;;;;;;;5049193;28;20060;-65
2021/10/18 01:08:34;;;;;;;24.02;9.77;;;;;;;;;;5051290;28;20036;-66
2021/10/18 01:11:00;;;;;;;17.98;9.68;;;;;;;;;;5050109;28;20021;-66
2021/10/18 01:13:26;;;;;;;18.88;9.82;;;;;;;;;;5048387;28;20041;-66
2021/10/18 01:15:53;;;;;;;17.45;9.63;;;;;;;;;;5048735;28;20031;-66
2021/10/18 01:18:19;;;;;;;16.98;8.35;;;;;;;;;;5050483;28;20087;-66
2021/10/18 01:20:45;;;;;;;17.85;8.35;;;;;;;;;;5050479;28;20029;-66
2021/10/18 01:23:11;;;;;;;16.58;9.02;;;;;;;;;;5050835;28;20028;-66
2021/10/18 01:25:38;;;;;;;18.60;9.38;;;;;;;;;;5048535;28;20067;-66
2021/10/18 01:28:04;;;;;;;18.42;9.57;;;;;;;;;;5048604;28;20064;-66
2021/10/18 01:30:30;;;;;;;18.40;8.23;;;;;;;;;;5048648;28;20524;-66
2021/10/18 01:32:57;;;;;;;14.07;7.28;;;;;;;;;;5048642;28;20049;-66
2021/10/18 01:35:23;;;;;;;14.88;8.63;;;;;;;;;;5052132;28;20021;-66
2021/10/18 01:37:49;;;;;;;16.40;8.00;;;;;;;;;;5047980;28;20033;-66
2021/10/18 01:40:16;;;;;;;17.98;8.35;;;;;;;;;;5048580;28;20047;-66
2021/10/18 01:42:43;;;;;;;17.42;8.75;;;;;;;;;;5048521;28;20021;-66
2021/10/18 01:45:10;;;;;;;17.52;8.90;;;;;;;;;;5057101;28;20465;-66
2021/10/18 01:47:36;;;;;;;18.95;9.40;;;;;;;;;;5049528;28;20384;-65
2021/10/18 01:50:06;;;;;;;16.98;9.18;;;;;;;;;;5049610;28;20039;-66
2021/10/18 01:52:32;;;;;;;16.52;9.10;;;;;;;;;;5047009;28;20044;-66
2021/10/18 01:54:58;;;;;;;16.42;8.45;;;;;;;;;;5048164;28;20029;-65
2021/10/18 01:57:24;;;;;;;18.90;9.68;;;;;;;;;;5048515;28;20497;-66
2021/10/18 01:59:50;;;;;;;17.73;8.40;;;;;;;;;;5048671;28;20499;-66
2021/10/18 02:02:16;;;;;;;16.45;8.60;;;;;;;;;;5051313;28;20052;-66
2021/10/18 02:04:42;;;;;;;13.98;7.95;;;;;;;;;;5048036;28;20384;-66
2021/10/18 02:07:08;;;;;;;19.58;7.40;;;;;;;;;;5047858;28;20095;-66
2021/10/18 02:09:34;;;;;;;15.90;8.35;;;;;;;;;;5048168;28;20040;-66
2021/10/18 02:12:00;;;;;;;15.00;7.40;;;;;;;;;;5048255;28;20044;-66
2021/10/18 02:14:26;;;;;;;17.65;8.15;;;;;;;;;;5050545;28;20418;-65
2021/10/18 02:16:52;;;;;;;14.00;7.18;;;;;;;;;;5047014;28;20017;-65
2021/10/18 02:19:18;;;;;;;15.82;7.88;;;;;;;;;;5047959;28;20037;-65
2021/10/18 02:21:44;;;;;;;13.60;6.90;;;;;;;;;;5046956;28;20035;-66
2021/10/18 02:24:10;;;;;;;17.50;7.85;;;;;;;;;;5047993;28;20026;-66
2021/10/18 02:26:36;;;;;;;14.38;7.70;;;;;;;;;;5050170;28;20486;-67
2021/10/18 02:29:02;;;;;;;12.73;7.43;;;;;;;;;;5051454;28;20036;-66
2021/10/18 02:31:28;;;;;;;15.27;7.22;;;;;;;;;;5051767;28;20049;-66
2021/10/18 02:33:54;;;;;;;16.60;7.25;;;;;;;;;;5050571;28;20103;-66
2021/10/18 02:36:20;;;;;;;13.90;7.20;;;;;;;;;;5053220;28;20027;-66
2021/10/18 02:38:46;;;;;;;14.15;7.45;;;;;;;;;;5052905;28;20090;-66
2021/10/18 02:41:12;;;;;;;15.60;7.32;;;;;;;;;;5054474;28;20119;-66
2021/10/18 02:43:38;;;;;;;13.60;7.55;;;;;;;;;;5051821;28;20036;-66
2021/10/18 02:46:04;;;;;;;16.75;7.68;;;;;;;;;;5051117;28;20485;-66
2021/10/18 02:48:30;;;;;;;16.48;7.90;;;;;;;;;;5051579;28;20086;-66
2021/10/18 02:50:56;;;;;;;16.20;8.52;;;;;;;;;;5051877;28;20048;-66
2021/10/18 02:53:22;;;;;;;13.38;7.20;;;;;;;;;;5055239;28;20037;-66
2021/10/18 02:55:48;;;;;;;13.00;7.15;;;;;;;;;;5051735;28;20108;-66
2021/10/18 02:58:14;;;;;;;14.05;6.68;;;;;;;;;;5051226;28;20029;-66
2021/10/18 03:00:40;;;;;;;17.00;7.43;;;;;;;;;;5051684;28;20017;-66
2021/10/18 03:03:07;;;;;;;15.00;7.55;;;;;;;;;;5050984;28;20410;-66
2021/10/18 03:05:33;;;;;;;18.38;7.57;;;;;;;;;;5053850;28;20087;-67
2021/10/18 03:07:59;;;;;;;15.48;7.63;;;;;;;;;;5052468;28;20032;-66
2021/10/18 03:10:25;;;;;;;12.80;7.00;;;;;;;;;;5051210;28;20458;-66
2021/10/18 03:12:51;;;;;;;14.00;7.35;;;;;;;;;;5050965;28;20120;-66
2021/10/18 03:15:17;;;;;;;14.50;7.25;;;;;;;;;;5056105;28;20129;-65
2021/10/18 03:17:43;;;;;;;10.98;6.10;;;;;;;;;;5052992;28;20170;-66
2021/10/18 03:20:10;;;;;;;12.82;6.65;;;;;;;;;;5053017;28;20076;-66
2021/10/18 03:22:37;;;;;;;15.02;6.50;;;;;;;;;;5049704;28;20029;-66
2021/10/18 03:25:04;;;;;;;12.38;6.70;;;;;;;;;;5050989;28;20114;-66
2021/10/18 03:27:30;;;;;;;13.05;6.60;;;;;;;;;;5050901;28;20031;-65
2021/10/18 03:29:56;;;;;;;14.60;7.07;;;;;;;;;;5051005;28;20461;-65
2021/10/18 03:32:22;;;;;;;14.27;6.75;;;;;;;;;;5054252;28;20493;-66
2021/10/18 03:34:48;;;;;;;17.38;7.75;;;;;;;;;;5050320;28;20087;-66
2021/10/18 03:37:14;;;;;;;16.00;7.38;;;;;;;;;;5052620;28;20025;-66
2021/10/18 03:39:40;;;;;;;15.00;7.85;;;;;;;;;;5052092;28;20032;-66
2021/10/18 03:42:06;;;;;;;13.90;7.00;;;;;;;;;;5052337;28;20024;-67
2021/10/18 03:44:32;;;;;;;17.45;6.68;;;;;;;;;;5052435;28;20407;-66
2021/10/18 03:46:58;;;;;;;16.20;6.68;;;;;;;;;;5052877;28;20082;-66
2021/10/18 03:49:24;;;;;;;13.52;6.78;;;;;;;;;;5052427;28;20033;-66
2021/10/18 03:51:50;;;;;;;11.52;6.35;;;;;;;;;;5050275;28;20480;-66
2021/10/18 03:54:16;;;;;;;13.25;6.35;;;;;;;;;;5050689;28;20048;-64
2021/10/18 03:56:42;;;;;;;12.50;6.72;;;;;;;;;;5052563;28;20024;-66
2021/10/18 03:59:08;;;;;;;12.80;6.57;;;;;;;;;;5051949;28;20028;-66
2021/10/18 04:01:34;;;;;;;11.27;5.88;;;;;;;;;;5049070;28;20029;-67
2021/10/18 04:04:00;;;;;;;14.18;7.68;;;;;;;;;;5050107;28;20108;-66
2021/10/18 04:06:26;;;;;;;18.33;9.02;;;;;;;;;;5049986;28;20029;-66
2021/10/18 04:08:54;;;;;;;16.75;7.50;;;;;;;;;;5050681;28;20115;-66
2021/10/18 04:11:20;;;;;;;11.65;6.38;;;;;;;;;;5052384;28;20021;-66
2021/10/18 04:13:46;;;;;;;15.38;7.32;;;;;;;;;;5048482;28;20069;-66
2021/10/18 04:16:12;;;;;;;13.95;6.38;;;;;;;;;;5050066;28;20106;-66
2021/10/18 04:18:38;;;;;;;14.38;6.45;;;;;;;;;;5048913;28;20522;-66
2021/10/18 04:21:05;;;;;;;12.90;6.40;;;;;;;;;;5050337;28;20021;-66
2021/10/18 04:23:31;;;;;;;10.30;5.45;;;;;;;;;;5050959;28;20025;-67
2021/10/18 04:25:57;;;;;;;12.50;5.97;;;;;;;;;;5052624;28;20040;-66
2021/10/18 04:28:23;;;;;;;13.02;5.97;;;;;;;;;;5049231;28;20029;-66
2021/10/18 04:30:49;;;;;;;13.07;7.43;;;;;;;;;;5049696;28;20037;-66
2021/10/18 04:33:15;;;;;;;12.80;6.70;;;;;;;;;;5051377;28;20032;-66
2021/10/18 04:35:41;;;;;;;14.07;6.15;;;;;;;;;;5051375;28;20025;-66
2021/10/18 04:38:07;;;;;;;13.15;5.65;;;;;;;;;;5051654;28;20370;-66
2021/10/18 04:40:33;;;;;;;13.43;6.20;;;;;;;;;;5048270;28;20025;-68
2021/10/18 04:42:59;;;;;;;12.35;6.72;;;;;;;;;;5048336;28;20039;-67
2021/10/18 04:45:26;;;;;;;13.68;6.97;;;;;;;;;;5049380;28;20036;-67
2021/10/18 04:47:52;;;;;;;11.90;6.60;;;;;;;;;;5049076;28;20330;-66
2021/10/18 04:50:19;;;;;;;13.65;6.93;;;;;;;;;;5051747;28;20539;-67
2021/10/18 04:52:45;;;;;;;13.07;6.47;;;;;;;;;;5049073;28;20501;-67
2021/10/18 04:55:11;;;;;;;14.48;6.85;;;;;;;;;;5049601;28;20033;-67
2021/10/18 04:57:49;;;;;;;15.57;6.93;;;;;;;;;;5049351;28;20029;-67
2021/10/18 05:00:15;;;;;;;15.38;7.18;;;;;;;;;;5049109;28;20029;-67
2021/10/18 05:02:41;;;;;;;13.07;6.25;;;;;;;;;;5050948;28;20485;-67
2021/10/18 05:05:07;;;;;;;11.70;5.90;;;;;;;;;;5050596;28;20040;-68
2021/10/18 05:07:33;;;;;;;13.02;6.35;;;;;;;;;;5050518;28;20481;-68
2021/10/18 05:09:59;;;;;;;14.15;7.13;;;;;;;;;;5049200;28;20107;-68
2021/10/18 05:12:25;;;;;;;13.73;6.93;;;;;;;;;;5050297;28;20481;-68
2021/10/18 05:14:51;;;;;;;11.65;6.30;;;;;;;;;;5049697;28;20025;-69
2021/10/18 05:17:17;;;;;;;12.38;6.30;;;;;;;;;;5051451;28;20083;-68
2021/10/18 05:19:43;;;;;;;13.40;6.47;;;;;;;;;;5049063;28;20035;-68
2021/10/18 05:22:09;;;;;;;12.48;6.63;;;;;;;;;;5049217;28;20473;-68
2021/10/18 05:24:35;;;;;;;12.85;6.50;;;;;;;;;;5048635;28;20032;-68
2021/10/18 05:27:01;;;;;;;15.27;8.18;;;;;;;;;;5049054;28;20557;-67
2021/10/18 05:29:27;;;;;;;16.95;6.68;;;;;;;;;;5051641;28;20041;-68
2021/10/18 05:31:53;;;;;;;13.02;6.82;;;;;;;;;;5048782;28;20080;-66
2021/10/18 05:34:19;;;;;;;13.65;7.05;;;;;;;;;;5048558;28;20069;-69
2021/10/18 05:36:45;;;;;;;14.88;6.68;;;;;;;;;;5048411;28;20386;-68
2021/10/18 05:39:11;;;;;;;13.85;6.55;;;;;;;;;;5048745;28;20085;-68
2021/10/18 05:41:37;;;;;;;13.02;6.57;;;;;;;;;;5050559;28;20036;-68
2021/10/18 05:44:04;;;;;;;14.00;6.78;;;;;;;;;;5049015;28;20111;-67
2021/10/18 05:46:30;;;;;;;13.88;6.38;;;;;;;;;;5048469;28;20063;-67
2021/10/18 05:48:56;;;;;;;15.07;6.53;;;;;;;;;;5048158;28;20056;-65
2021/10/18 05:51:25;;;;;;;13.68;6.70;;;;;;;;;;5050077;28;20365;-65
2021/10/18 05:53:50;;;;;;;12.27;6.68;;;;;;;;;;5048848;28;20398;-66
2021/10/18 05:56:17;;;;;;;17.38;6.72;;;;;;;;;;5051192;28;20051;-65
2021/10/18 05:58:42;;;;;;;12.90;6.65;;;;;;;;;;5048111;28;20033;-65
2021/10/18 06:01:08;;;;;;;10.25;5.35;;;;;;;;;;5048018;28;20139;-65
2021/10/18 06:03:36;;;;;;;14.82;6.05;;;;;;;;;;5047175;28;20033;-65
2021/10/18 06:06:06;;;;;;;13.77;5.45;;;;;;;;;;5048038;28;20017;-65
2021/10/18 06:08:32;;;;;;;9.65;5.70;;;;;;;;;;5050962;28;20025;-65
2021/10/18 06:10:58;;;;;;;9.50;5.38;;;;;;;;;;5050140;28;20029;-66
2021/10/18 06:13:24;;;;;;;17.10;9.00;;;;;;;;;;5048159;28;20111;-66
2021/10/18 06:15:51;;;;;;;13.23;6.75;;;;;;;;;;5048132;28;20035;-65
2021/10/18 06:18:18;;;;;;;11.93;6.22;;;;;;;;;;5047975;28;20033;-66
2021/10/18 06:20:45;;;;;;;14.27;6.25;;;;;;;;;;5049861;28;20021;-65
2021/10/18 06:23:13;;;;;;;14.48;6.32;;;;;;;;;;5050313;28;20480;-66
2021/10/18 06:25:39;;;;;;;14.23;7.00;;;;;;;;;;5047366;28;20530;-65
2021/10/18 06:28:05;;;;;;;15.43;7.07;;;;;;;;;;5047975;28;20029;-65
2021/10/18 06:30:31;;;;;;;15.18;6.65;;;;;;;;;;5048251;28;20021;-66
2021/10/18 06:32:57;;;;;;;11.82;6.20;;;;;;;;;;5047493;28;20077;-65
2021/10/18 06:35:24;;;;;;;13.10;6.72;;;;;;;;;;5051785;28;20025;-67
2021/10/18 06:37:50;;;;;;;14.57;8.07;;;;;;;;;;5047718;28;20033;-66
2021/10/18 06:40:16;;;;;;;12.80;7.45;;;;;;;;;;5047427;28;20476;-66
2021/10/18 06:42:42;;;;;;;15.38;6.78;;;;;;;;;;5049152;28;20036;-66
2021/10/18 06:45:09;;;;;;;13.60;7.70;;;;;;;;;;5049055;28;20460;-65
2021/10/18 06:47:35;;;;;;;13.50;6.97;;;;;;;;;;5049776;28;20093;-66
2021/10/18 06:50:01;;;;;;;14.68;8.15;;;;;;;;;;5048223;28;20036;-66
2021/10/18 06:52:34;;;;;;;13.25;7.30;;;;;;;;;;5046956;28;20048;-66
2021/10/18 06:55:00;;;;;;;14.32;7.65;;;;;;;;;;5047493;28;20044;-65
2021/10/18 06:57:27;;;;;;;18.65;8.18;;;;;;;;;;5047588;28;20472;-68
2021/10/18 06:59:53;;;;;;;16.83;7.95;;;;;;;;;;5048080;28;20039;-67
2021/10/18 07:02:18;;;;;;;13.45;6.15;;;;;;;;;;5051025;28;20573;-67
2021/10/18 07:04:44;;;;;;;13.52;6.88;;;;;;;;;;5047329;28;20116;-65
2021/10/18 07:07:11;;;;;;;17.48;8.48;;;;;;;;;;5047042;28;20033;-67
2021/10/18 07:09:37;;;;;;;15.98;6.70;;;;;;;;;;5048502;28;20021;-66
2021/10/18 07:12:03;;;;;;;10.77;5.95;;;;;;;;;;5047680;28;20084;-67
2021/10/18 07:14:29;;;;;;;11.15;5.90;;;;;;;;;;5051796;28;20096;-67
2021/10/18 07:16:55;;;;;;;14.52;6.03;;;;;;;;;;5052704;28;20029;-67
2021/10/18 07:19:21;;;;;;;10.45;5.05;;;;;;;;;;5051399;28;20032;-67
2021/10/18 07:21:47;;;;;;;12.18;5.22;;;;;;;;;;5050208;28;20036;-67
2021/10/18 07:24:16;;;;;;;8.80;4.78;;;;;;;;;;5050567;28;20036;-67
2021/10/18 07:26:42;;;;;;;12.57;4.68;;;;;;;;;;5051805;28;20070;-67
2021/10/18 07:29:08;;;;;;;10.02;4.90;;;;;;;;;;5052183;28;20029;-67
2021/10/18 07:31:34;;;;;;;7.70;4.53;;;;;;;;;;5050947;28;20048;-66
2021/10/18 07:34:06;;;;;;;15.05;4.63;;;;;;;;;;5050821;28;20108;-67
2021/10/18 07:36:34;;;;;;;7.90;4.88;;;;;;;;;;5050927;28;20021;-67
2021/10/18 07:39:04;;;;;;;;;;;;;;;;;;5049795;28;20082;-64
2021/10/18 07:41:31;;;;;;;8.07;4.65;;;;;;;;;;5053655;28;19904;-67
2021/10/18 07:43:57;;;;;;;9.18;4.75;;;;;;;;;;5051596;28;20033;-67
2021/10/18 07:46:23;;;;;;;7.07;3.83;;;;;;;;;;5049658;28;20094;-67
2021/10/18 07:48:49;;;;;;;6.45;3.75;;;;;;;;;;5050771;28;20029;-67
2021/10/18 07:51:15;;;;;;;7.22;4.13;;;;;;;;;;5050298;28;20427;-67
2021/10/18 07:53:41;;;;;;;8.60;4.60;;;;;;;;;;5052503;28;20033;-66
2021/10/18 07:56:07;;;;;;;9.68;5.30;;;;;;;;;;5051919;28;20067;-66
2021/10/18 07:58:33;;;;;;;8.85;4.80;;;;;;;;;;5050586;28;20035;-66
2021/10/18 08:00:59;;;;;;;8.85;4.45;;;;;;;;;;5050313;28;20025;-66
2021/10/18 08:03:25;;;;;;;6.72;3.75;;;;;;;;;;5050778;28;20035;-65
2021/10/18 08:05:51;;;;;;;6.90;3.90;;;;;;;;;;5051010;28;20033;-65
2021/10/18 08:08:21;;;;;;;8.70;4.07;;;;;;;;;;5052782;28;20116;-65
2021/10/18 08:10:49;;;;;;;7.45;3.78;;;;;;;;;;5050003;28;20036;-65
2021/10/18 08:13:15;;;;;;;9.00;3.63;;;;;;;;;;5050581;28;20029;-65
2021/10/18 08:15:41;;;;;;;8.63;3.75;;;;;;;;;;5052086;28;20021;-65
2021/10/18 08:18:08;;;;;;;8.13;3.88;;;;;;;;;;5052655;28;20094;-65
2021/10/18 08:20:34;;;;;;;9.45;4.22;;;;;;;;;;5049569;28;20021;-67
2021/10/18 08:23:00;;;;;;;10.00;4.55;;;;;;;;;;5052146;28;20029;-64
2021/10/18 08:25:26;;;;;;;9.43;4.50;;;;;;;;;;5050361;28;20392;-66
2021/10/18 08:27:52;;;;;;;6.80;4.10;;;;;;;;;;5051217;28;20162;-69
2021/10/18 08:30:18;;;;;;;8.30;3.53;;;;;;;;;;5050844;28;20021;-70
2021/10/18 08:32:44;;;;;;;9.88;4.47;;;;;;;;;;5050943;28;20130;-70
2021/10/18 08:35:11;;;;;;;9.57;4.05;;;;;;;;;;5052800;28;20079;-70
2021/10/18 08:40:25;;;;;;;8.98;3.80;;;;;;;;;;5049874;28;20032;-70
2021/10/18 08:45:26;;;;;;;6.65;3.60;;;;;;;;;;5050713;28;20032;-69
2021/10/18 08:47:53;;;;;;;6.88;3.60;;;;;;;;;;5050671;28;20017;-69
2021/10/18 08:50:20;;;;;;;7.07;3.53;;;;;;;;;;5053019;28;20389;-68
2021/10/18 08:52:46;;;;;;;9.55;3.30;;;;;;;;;;5049173;28;20052;-73
2021/10/18 08:55:12;;;;;;;7.22;3.50;;;;;;;;;;5047829;28;20442;-72
2021/10/18 08:57:38;;;;;;;8.80;3.75;;;;;;;;;;5049376;28;20405;-76
2021/10/18 09:00:07;;;;;;;6.15;2.92;;;;;;;;;;5049268;28;20024;-72
2021/10/18 09:02:36;;;;;;;8.48;3.05;;;;;;;;;;5042889;28;20025;-72
2021/10/18 09:05:04;;;;;;;6.03;2.97;;;;;;;;;;5049869;28;20024;-72
2021/10/18 09:07:34;;;;;;;9.00;3.45;;;;;;;;;;5047934;28;20416;-72
2021/10/18 09:10:01;;;;;;;6.05;2.60;;;;;;;;;;5048515;28;20024;-72
2021/10/18 09:12:28;;;;;;;5.47;2.80;;;;;;;;;;5052361;28;20037;-71
2021/10/18 09:14:55;;;;;;;5.65;2.60;;;;;;;;;;5032824;28;20104;-72
2021/10/18 09:17:31;;;;;;;6.07;2.78;;;;;;;;;;5051626;28;20052;-72
2021/10/18 09:20:16;;;;;;;8.13;2.88;;;;;;;;;;5049076;28;20386;-73
2021/10/18 09:22:42;;;;;;;7.18;3.20;;;;;;;;;;5050955;28;20036;-72
2021/10/18 09:25:08;;;;;;;8.68;3.20;;;;;;;;;;5047814;28;20052;-72
2021/10/18 09:27:34;;;;;;;4.60;2.60;;;;;;;;;;5047797;28;20029;-72
2021/10/18 09:30:00;;;;;;;4.38;2.17;;;;;;;;;;5059234;28;20071;-71
2021/10/18 09:32:26;;;;;;;6.93;2.83;;;;;;;;;;5064442;28;20527;-72
2021/10/18 09:35:03;;;;;;;6.38;3.30;;;;;;;;;;5049577;28;20044;-73
2021/10/18 09:37:37;;;;;;;7.20;3.30;;;;;;;;;;5049426;28;20029;-72
2021/10/18 09:40:03;;;;;;;7.90;3.00;;;;;;;;;;5047115;28;20037;-68
2021/10/18 09:42:29;;;;;;;6.30;3.00;;;;;;;;;;5053866;28;20043;-67
2021/10/18 10:52:37;;;;;;;8.13;3.38;;;;;;;;;;5054925;28;20044;-67
2021/10/18 10:55:23;;;;;;;6.30;3.22;;;;;;;;;;5050830;28;20040;-68
2021/10/18 10:57:52;;;;;;;7.13;3.58;;;;;;;;;;5038114;28;20075;-67
2021/10/18 11:00:30;;;;;;;5.85;3.13;;;;;;;;;;5051007;28;20480;-67
2021/10/18 11:03:14;;;;;;;7.75;3.50;;;;;;;;;;5062203;28;20033;-67
2021/10/18 11:05:59;;;;;;;7.53;3.67;;;;;;;;;;5052671;28;20025;-67
2021/10/18 11:08:32;;;;;;;8.00;3.70;;;;;;;;;;5056446;28;20033;-67
2021/10/18 11:11:07;;;;;;;9.30;4.03;;;;;;;;;;5058217;28;20115;-67
2021/10/18 11:13:40;;;;;;;7.55;4.07;;;;;;;;;;5053244;28;20056;-67
2021/10/18 11:16:06;;;;;;;7.97;4.28;;;;;;;;;;5050294;28;20382;-67
2021/10/18 11:18:32;;;;;;;8.98;4.07;;;;;;;;;;5049711;28;20033;-67
2021/10/18 11:21:10;;;;;;;10.45;4.65;;;;;;;;;;5053999;28;20045;-67
2021/10/18 11:23:36;;;;;;;;;;;;;;;;;;5053663;28;20473;-67
2021/10/18 11:26:02;;;;;;;9.98;4.65;;;;;;;;;;5051618;28;19996;-66
2021/10/18 11:28:28;;;;;;;8.88;4.70;;;;;;;;;;5050455;28;20044;-67
2021/10/18 11:30:59;;;;;;;9.40;4.55;;;;;;;;;;5051974;28;20420;-67
2021/10/18 11:33:25;;;;;;;12.43;5.38;;;;;;;;;;5061751;28;20090;-67
2021/10/18 11:35:51;;;;;;;11.32;4.85;;;;;;;;;;5048691;28;20025;-67
2021/10/18 11:38:18;;;;;;;9.75;5.38;;;;;;;;;;5052414;28;20037;-68
2021/10/18 11:40:44;;;;;;;11.57;6.20;;;;;;;;;;5052596;28;20536;-67
2021/10/18 11:43:10;;;;;;;13.35;6.25;;;;;;;;;;5055166;28;20029;-67
2021/10/18 11:45:37;;;;;;;14.52;5.47;;;;;;;;;;5049889;28;20504;-67
2021/10/18 11:48:05;;;;;;;13.38;6.45;;;;;;;;;;5050367;28;20029;-65
2021/10/18 11:50:36;;;;;;;11.20;6.25;;;;;;;;;;5052917;28;20056;-67
2021/10/18 11:53:08;;;;;;;11.20;6.10;;;;;;;;;;5054152;28;20032;-67
2021/10/18 11:55:39;;;;;;;15.20;6.80;;;;;;;;;;5051110;28;20472;-67
2021/10/18 11:58:06;;;;;;;14.18;6.03;;;;;;;;;;5043704;28;20112;-67
2021/10/18 12:00:40;;;;;;;12.88;6.82;;;;;;;;;;5050058;28;20138;-67
2021/10/18 12:03:07;;;;;;;11.48;5.68;;;;;;;;;;5061890;28;20160;-67
2021/10/18 12:05:36;;;;;;;10.98;6.35;;;;;;;;;;5051654;28;20029;-67
2021/10/18 12:08:04;;;;;;;13.00;6.53;;;;;;;;;;5051280;28;20103;-67
2021/10/18 12:10:30;;;;;;;14.93;7.22;;;;;;;;;;5049490;28;20447;-67
2021/10/18 12:13:15;;;;;;;13.55;6.47;;;;;;;;;;5054781;28;20033;-67
2021/10/18 12:15:44;;;;;;;14.82;6.68;;;;;;;;;;5049128;28;20086;-67
2021/10/18 12:18:10;;;;;;;10.75;6.38;;;;;;;;;;5049336;28;20024;-67
2021/10/18 12:20:40;;;;;;;13.88;7.60;;;;;;;;;;5051902;28;20078;-67
2021/10/18 12:23:07;;;;;;;11.52;6.90;;;;;;;;;;5053154;28;20035;-67
2021/10/18 12:25:34;;;;;;;16.50;6.78;;;;;;;;;;5049570;28;20384;-67
2021/10/18 12:28:20;;;;;;;12.52;7.40;;;;;;;;;;5049386;28;20071;-67
2021/10/18 12:30:46;;;;;;;15.45;8.40;;;;;;;;;;5049256;28;20025;-67
2021/10/18 12:33:13;;;;;;;15.48;7.78;;;;;;;;;;5062422;28;20038;-67
2021/10/18 12:35:40;;;;;;;14.90;6.90;;;;;;;;;;5051537;28;20029;-67
2021/10/18 12:38:15;;;;;;;12.43;7.05;;;;;;;;;;5050343;28;20401;-67
2021/10/18 12:40:41;;;;;;;11.77;6.95;;;;;;;;;;5048848;28;20099;-67
2021/10/18 12:43:26;;;;;;;14.85;7.53;;;;;;;;;;5053910;28;20029;-67
2021/10/18 12:45:52;;;;;;;12.32;6.82;;;;;;;;;;5051126;28;20029;-68
2021/10/18 12:48:24;;;;;;;13.30;6.10;;;;;;;;;;5049301;28;20028;-67
2021/10/18 12:50:50;;;;;;;12.80;6.57;;;;;;;;;;5050429;28;20366;-67
2021/10/18 12:53:33;;;;;;;10.70;6.30;;;;;;;;;;5052942;28;20033;-67
2021/10/18 12:56:00;;;;;;;13.73;6.45;;;;;;;;;;5051201;28;20112;-67
2021/10/18 12:58:27;;;;;;;11.30;6.55;;;;;;;;;;5051659;28;20147;-67
2021/10/18 13:00:53;;;;;;;15.27;6.90;;;;;;;;;;5048138;28;20021;-67
2021/10/18 13:03:20;;;;;;;14.90;6.53;;;;;;;;;;5061033;28;20392;-67
2021/10/18 13:05:50;;;;;;;11.70;6.60;;;;;;;;;;5050327;28;20334;-67
2021/10/18 13:08:20;;;;;;;13.65;7.05;;;;;;;;;;5051626;28;20060;-67
2021/10/18 13:10:49;;;;;;;14.65;7.32;;;;;;;;;;5048339;28;20395;-68
2021/10/18 13:13:16;;;;;;;12.60;7.35;;;;;;;;;;5052528;28;20037;-67
2021/10/18 13:15:43;;;;;;;14.80;7.40;;;;;;;;;;5048454;28;20017;-67
2021/10/18 13:18:10;;;;;;;14.63;7.30;;;;;;;;;;5048298;28;20156;-67
2021/10/18 13:20:36;;;;;;;12.88;7.15;;;;;;;;;;5050791;28;20186;-67
2021/10/18 13:23:07;;;;;;;15.38;7.05;;;;;;;;;;5051648;28;20060;-66
2021/10/18 13:25:35;;;;;;;20.00;7.80;;;;;;;;;;5048678;28;20028;-66
2021/10/18 13:28:02;;;;;;;12.77;7.18;;;;;;;;;;5048250;28;20036;-66
2021/10/18 13:30:28;;;;;;;14.50;7.10;;;;;;;;;;5048151;28;20119;-66
2021/10/18 13:32:54;;;;;;;15.38;7.70;;;;;;;;;;5061752;28;20492;-66
2021/10/18 13:35:21;;;;;;;15.40;7.15;;;;;;;;;;5051133;28;20025;-67
2021/10/18 13:37:47;;;;;;;13.45;7.20;;;;;;;;;;5048100;28;20037;-66
2021/10/18 13:40:14;;;;;;;16.35;7.60;;;;;;;;;;5049487;28;20043;-66
2021/10/18 13:42:41;;;;;;;12.80;7.20;;;;;;;;;;5052428;28;20033;-66
2021/10/18 13:45:08;;;;;;;18.65;7.85;;;;;;;;;;5048242;28;20083;-66
2021/10/18 13:47:34;;;;;;;14.50;8.38;;;;;;;;;;5050630;28;20032;-66
2021/10/18 13:50:00;;;;;;;13.00;7.07;;;;;;;;;;5048945;28;20060;-66
2021/10/18 13:52:26;;;;;;;12.95;7.55;;;;;;;;;;5049701;28;20060;-66
2021/10/18 13:54:52;;;;;;;12.38;7.65;;;;;;;;;;5047377;28;20028;-66
2021/10/18 13:57:20;;;;;;;12.73;7.60;;;;;;;;;;5047624;28;20033;-66
2021/10/18 13:59:47;;;;;;;12.20;7.72;;;;;;;;;;5049459;28;20037;-66
2021/10/18 14:02:16;;;;;;;13.95;7.40;;;;;;;;;;5061504;28;20025;-66
2021/10/18 14:04:43;;;;;;;16.08;8.07;;;;;;;;;;5048615;28;20090;-66
2021/10/18 14:07:09;;;;;;;17.50;9.23;;;;;;;;;;5047833;28;20033;-66
2021/10/18 14:09:36;;;;;;;18.10;9.85;;;;;;;;;;5047385;28;20029;-66
2021/10/18 14:12:03;;;;;;;17.35;9.75;;;;;;;;;;5052889;28;20041;-66
2021/10/18 14:14:29;;;;;;;23.58;8.93;;;;;;;;;;5050185;28;20041;-66
2021/10/18 14:16:55;;;;;;;18.38;9.07;;;;;;;;;;5048061;28;20115;-67
2021/10/18 14:19:21;;;;;;;14.13;7.85;;;;;;;;;;5049205;28;20047;-66
2021/10/18 14:21:47;;;;;;;18.45;8.75;;;;;;;;;;5049066;28;20108;-66
2021/10/18 14:24:14;;;;;;;17.17;8.95;;;;;;;;;;5047738;28;20366;-66
2021/10/18 14:26:41;;;;;;;13.55;7.68;;;;;;;;;;5053603;28;20028;-66
2021/10/18 14:29:07;;;;;;;14.98;7.53;;;;;;;;;;5052977;28;20032;-66
2021/10/18 14:31:34;;;;;;;18.70;9.98;;;;;;;;;;5057114;28;20040;-66
2021/10/18 14:34:00;;;;;;;23.33;9.40;;;;;;;;;;5058034;28;20055;-66
2021/10/18 14:36:26;;;;;;;18.42;9.32;;;;;;;;;;5052805;28;20472;-66
2021/10/18 14:38:53;;;;;;;14.90;8.75;;;;;;;;;;5051352;28;20026;-66
2021/10/18 14:41:20;;;;;;;16.65;8.55;;;;;;;;;;5055301;28;20013;-66
2021/10/18 14:43:46;;;;;;;13.70;8.38;;;;;;;;;;5045433;28;20029;-66
2021/10/18 14:46:12;;;;;;;19.98;9.85;;;;;;;;;;5050139;28;20033;-66
2021/10/18 14:48:38;;;;;;;21.23;11.13;;;;;;;;;;5049442;28;20112;-66
2021/10/18 14:51:04;;;;;;;26.10;14.48;;;;;;;;;;5055180;28;20493;-66
2021/10/18 14:53:30;;;;;;;20.52;10.07;;;;;;;;;;5053441;28;20082;-66
2021/10/18 14:55:56;;;;;;;17.45;9.48;;;;;;;;;;5051772;28;20059;-66
2021/10/18 14:58:22;;;;;;;17.00;10.05;;;;;;;;;;5050335;28;20051;-66
2021/10/18 15:00:48;;;;;;;20.20;11.20;;;;;;;;;;5053585;28;20025;-66
2021/10/18 15:03:14;;;;;;;25.48;14.25;;;;;;;;;;5049443;28;20467;-66
2021/10/18 15:05:40;;;;;;;24.65;13.88;;;;;;;;;;5053043;28;20021;-66
2021/10/18 15:08:06;;;;;;;20.30;12.38;;;;;;;;;;5055254;28;20057;-66
2021/10/18 15:10:32;;;;;;;21.38;12.55;;;;;;;;;;5053454;28;20488;-66
2021/10/18 15:12:59;;;;;;;21.40;12.48;;;;;;;;;;5052189;28;20043;-66
2021/10/18 15:15:25;;;;;;;31.58;15.52;;;;;;;;;;5051833;28;20107;-66
2021/10/18 15:17:52;;;;;;;46.33;29.63;;;;;;;;;;5051763;28;20504;-67
2021/10/18 15:20:18;;;;;;;43.45;25.75;;;;;;;;;;5055744;28;20029;-66
2021/10/18 15:22:44;;;;;;;52.67;26.00;;;;;;;;;;5051713;28;20374;-66
2021/10/18 15:25:11;;;;;;;28.35;15.73;;;;;;;;;;5050463;28;20025;-66
2021/10/18 15:27:37;;;;;;;24.15;14.88;;;;;;;;;;5050367;28;20528;-66
2021/10/18 15:30:06;;;;;;;39.47;21.55;;;;;;;;;;5052353;28;20499;-67
2021/10/18 15:32:34;;;;;;;35.90;18.33;;;;;;;;;;5065391;28;20052;-67
2021/10/18 15:35:00;;;;;;;31.73;18.13;;;;;;;;;;5052677;28;20025;-66
2021/10/18 15:37:27;;;;;;;36.53;21.52;;;;;;;;;;5052042;28;20025;-66
2021/10/18 15:39:53;;;;;;;42.03;21.98;;;;;;;;;;5050027;28;20354;-66
2021/10/18 15:42:19;;;;;;;30.38;17.27;;;;;;;;;;5052350;28;20016;-66